Time;durP1;ratioP1;P1;durP2;ratioP2;P2;SDS_P1;SDS_P2;PMS_P1;PMS_P2;Temp;Humidity;BMP_temperature;BMP_pressure;BME280_temperature;BME280_humidity;BME280_pressure;Samples;Min_cycle;Max_cycle;Signal;HPM_P1;HPM_P2
2022/01/06 00:00:51;;;;;;;23.55;4.90;;;;;;;;;;4994477;28;20161;-48
2022/01/06 00:03:17;;;;;;;9.97;4.43;;;;;;;;;;4994762;28;20191;-48
2022/01/06 00:05:43;;;;;;;24.30;4.37;;;;;;;;;;4994710;28;20407;-49
2022/01/06 00:08:09;;;;;;;14.00;3.73;;;;;;;;;;4994494;28;20408;-49
2022/01/06 00:10:35;;;;;;;3.87;2.60;;;;;;;;;;4994452;28;20436;-50
2022/01/06 00:13:08;;;;;;;23.90;4.60;;;;;;;;;;4994377;28;20408;-49
2022/01/06 00:15:43;;;;;;;18.65;3.40;;;;;;;;;;4994627;28;20255;-48
2022/01/06 00:18:20;;;;;;;28.70;5.20;;;;;;;;;;4994367;28;20192;-48
2022/01/06 00:23:34;;;;;;;13.25;4.57;;;;;;;;;;4994273;28;20275;-49
2022/01/06 00:26:01;;;;;;;20.70;4.70;;;;;;;;;;4994638;28;20164;-48
2022/01/06 00:28:28;;;;;;;28.73;5.00;;;;;;;;;;4994317;28;20211;-49
2022/01/06 00:30:54;;;;;;;15.57;4.22;;;;;;;;;;4993955;28;20236;-50
2022/01/06 00:33:20;;;;;;;15.90;4.18;;;;;;;;;;4994126;28;20175;-50
2022/01/06 00:35:47;;;;;;;17.13;5.18;;;;;;;;;;4994234;28;20197;-50
2022/01/06 00:38:13;;;;;;;11.10;4.30;;;;;;;;;;4993978;28;20727;-49
2022/01/06 00:40:39;;;;;;;11.73;4.70;;;;;;;;;;4993867;28;20257;-49
2022/01/06 00:43:06;;;;;;;11.43;4.40;;;;;;;;;;4993961;28;20963;-50
2022/01/06 00:45:32;;;;;;;16.45;5.60;;;;;;;;;;4993993;28;20175;-49
2022/01/06 00:47:58;;;;;;;17.65;3.95;;;;;;;;;;4994369;28;20227;-49
2022/01/06 00:50:25;;;;;;;13.45;4.30;;;;;;;;;;4993333;28;20649;-49
2022/01/06 00:52:51;;;;;;;19.05;4.95;;;;;;;;;;4993563;28;20193;-48
2022/01/06 00:55:17;;;;;;;14.05;4.40;;;;;;;;;;4993859;28;20172;-48
2022/01/06 00:57:43;;;;;;;23.33;4.40;;;;;;;;;;4993651;28;20542;-49
2022/01/06 01:00:10;;;;;;;17.63;4.27;;;;;;;;;;4993636;28;20224;-48
2022/01/06 01:02:36;;;;;;;24.40;5.68;;;;;;;;;;4993276;28;20420;-48
2022/01/06 01:05:03;;;;;;;21.90;4.43;;;;;;;;;;4993686;28;20174;-49
2022/01/06 01:07:29;;;;;;;20.30;3.80;;;;;;;;;;4993595;28;20240;-49
2022/01/06 01:09:55;;;;;;;6.63;3.53;;;;;;;;;;4993411;28;20659;-50
2022/01/06 01:12:23;;;;;;;18.70;4.75;;;;;;;;;;4993156;28;20428;-49
2022/01/06 01:14:59;;;;;;;9.85;4.35;;;;;;;;;;4993333;28;20663;-48
2022/01/06 01:17:27;;;;;;;9.02;4.28;;;;;;;;;;4993254;28;20196;-49
2022/01/06 01:19:53;;;;;;;21.52;4.55;;;;;;;;;;4993518;28;20488;-49
2022/01/06 01:22:19;;;;;;;17.98;4.32;;;;;;;;;;4993162;28;20840;-48
2022/01/06 01:24:45;;;;;;;15.05;4.57;;;;;;;;;;4993079;28;20263;-48
2022/01/06 01:27:11;;;;;;;11.73;4.43;;;;;;;;;;4993183;28;20255;-49
2022/01/06 01:29:45;;;;;;;16.20;5.17;;;;;;;;;;4993019;28;20408;-48
2022/01/06 01:32:11;;;;;;;20.58;4.15;;;;;;;;;;4992756;28;20470;-49
2022/01/06 01:34:40;;;;;;;15.90;5.05;;;;;;;;;;4993056;28;20168;-48
2022/01/06 01:37:05;;;;;;;12.48;4.13;;;;;;;;;;4993007;28;20553;-49
2022/01/06 01:39:31;;;;;;;24.27;4.93;;;;;;;;;;4992782;28;20165;-48
2022/01/06 01:41:57;;;;;;;19.50;4.13;;;;;;;;;;4992634;28;20924;-48
2022/01/06 01:44:23;;;;;;;10.57;3.90;;;;;;;;;;4992880;28;20411;-49
2022/01/06 01:47:03;;;;;;;12.60;3.30;;;;;;;;;;4992856;28;20531;-49
2022/01/06 01:49:46;;;;;;;21.10;5.15;;;;;;;;;;4992785;28;20172;-49
2022/01/06 01:52:12;;;;;;;25.40;4.15;;;;;;;;;;4992471;28;20215;-49
2022/01/06 01:54:38;;;;;;;13.60;3.60;;;;;;;;;;4992794;28;20736;-49
2022/01/06 01:57:04;;;;;;;18.83;3.97;;;;;;;;;;4992678;28;20412;-48
2022/01/06 01:59:30;;;;;;;17.50;3.28;;;;;;;;;;4992794;28;20413;-49
2022/01/06 02:01:56;;;;;;;14.40;3.90;;;;;;;;;;4990970;28;20189;-49
2022/01/06 02:04:22;;;;;;;9.53;4.13;;;;;;;;;;4992192;28;20408;-50
2022/01/06 02:06:48;;;;;;;13.75;5.15;;;;;;;;;;4992222;28;20463;-49
2022/01/06 02:09:13;;;;;;;15.77;3.90;;;;;;;;;;4992202;28;20214;-50
2022/01/06 02:11:39;;;;;;;12.30;3.77;;;;;;;;;;4992274;28;20431;-49
2022/01/06 02:14:06;;;;;;;16.40;4.07;;;;;;;;;;4992569;28;20979;-50
2022/01/06 02:16:33;;;;;;;15.05;3.90;;;;;;;;;;4992354;28;20408;-49
2022/01/06 02:18:58;;;;;;;8.10;3.28;;;;;;;;;;4992511;28;20559;-49
2022/01/06 02:21:24;;;;;;;14.50;4.30;;;;;;;;;;4992013;28;20192;-49
2022/01/06 02:23:50;;;;;;;14.97;2.93;;;;;;;;;;4992427;28;20489;-49
2022/01/06 02:26:17;;;;;;;12.85;4.30;;;;;;;;;;4992350;28;20447;-50
2022/01/06 02:28:43;;;;;;;19.42;4.07;;;;;;;;;;4992468;28;20193;-49
2022/01/06 02:31:09;;;;;;;20.15;4.45;;;;;;;;;;4991861;28;20228;-50
2022/01/06 02:33:36;;;;;;;30.77;4.07;;;;;;;;;;4992391;28;20252;-49
2022/01/06 02:36:03;;;;;;;9.15;5.00;;;;;;;;;;4992182;28;20170;-51
2022/01/06 02:38:29;;;;;;;9.40;3.60;;;;;;;;;;4992271;28;20201;-50
2022/01/06 02:40:55;;;;;;;9.02;3.60;;;;;;;;;;4991870;28;20850;-49
2022/01/06 02:43:24;;;;;;;8.93;3.70;;;;;;;;;;4992287;28;20566;-49
2022/01/06 02:45:50;;;;;;;7.95;3.50;;;;;;;;;;4992605;28;20161;-50
2022/01/06 02:48:16;;;;;;;25.10;4.07;;;;;;;;;;4992285;28;20165;-50
2022/01/06 02:50:46;;;;;;;12.52;6.00;;;;;;;;;;4991666;28;20201;-50
2022/01/06 02:53:13;;;;;;;12.25;3.58;;;;;;;;;;4992376;28;20177;-49
2022/01/06 02:55:50;;;;;;;11.75;3.53;;;;;;;;;;4992132;28;20169;-51
2022/01/06 02:58:21;;;;;;;23.77;4.90;;;;;;;;;;4992164;28;20333;-49
2022/01/06 03:00:47;;;;;;;16.33;3.67;;;;;;;;;;4991706;28;20180;-50
2022/01/06 03:03:13;;;;;;;8.90;4.50;;;;;;;;;;4992002;28;20633;-50
2022/01/06 03:05:39;;;;;;;24.13;3.38;;;;;;;;;;4992307;28;20192;-49
2022/01/06 03:08:05;;;;;;;27.37;4.47;;;;;;;;;;4991963;28;20173;-49
2022/01/06 03:10:36;;;;;;;21.88;4.40;;;;;;;;;;4991944;28;20483;-50
2022/01/06 03:13:02;;;;;;;7.95;2.92;;;;;;;;;;4992832;28;20169;-49
2022/01/06 03:15:28;;;;;;;14.45;3.22;;;;;;;;;;4995624;28;20173;-49
2022/01/06 03:17:57;;;;;;;18.77;4.07;;;;;;;;;;4995426;28;20263;-49
2022/01/06 03:20:25;;;;;;;16.48;3.20;;;;;;;;;;4995878;28;20447;-50
2022/01/06 03:22:51;;;;;;;13.48;4.10;;;;;;;;;;4995201;28;20181;-50
2022/01/06 03:25:17;;;;;;;5.65;3.17;;;;;;;;;;4995448;28;20247;-50
2022/01/06 03:27:44;;;;;;;15.02;4.28;;;;;;;;;;4995388;28;20181;-49
2022/01/06 03:30:11;;;;;;;8.70;3.40;;;;;;;;;;4995266;28;20271;-49
2022/01/06 03:32:37;;;;;;;7.70;3.17;;;;;;;;;;4995054;28;20216;-49
2022/01/06 03:35:04;;;;;;;20.83;3.65;;;;;;;;;;4995535;28;20590;-49
2022/01/06 03:37:30;;;;;;;8.25;2.72;;;;;;;;;;4995225;28;20755;-49
2022/01/06 03:39:56;;;;;;;8.27;3.55;;;;;;;;;;4995215;28;20197;-49
2022/01/06 03:42:22;;;;;;;12.13;3.40;;;;;;;;;;4994848;28;20216;-49
2022/01/06 03:44:49;;;;;;;9.68;3.72;;;;;;;;;;4995053;28;20204;-49
2022/01/06 03:47:15;;;;;;;15.10;5.95;;;;;;;;;;4994990;28;20165;-50
2022/01/06 03:49:41;;;;;;;21.80;3.95;;;;;;;;;;4994960;28;20182;-50
2022/01/06 03:52:07;;;;;;;10.57;2.75;;;;;;;;;;4994726;28;20687;-50
2022/01/06 03:54:33;;;;;;;12.40;3.63;;;;;;;;;;4994922;28;20180;-50
2022/01/06 03:56:59;;;;;;;9.13;3.42;;;;;;;;;;4994862;28;20171;-50
2022/01/06 03:59:25;;;;;;;27.90;4.93;;;;;;;;;;4994601;28;20534;-49
2022/01/06 04:01:51;;;;;;;11.73;3.57;;;;;;;;;;4994813;28;20519;-50
2022/01/06 04:04:17;;;;;;;9.43;5.47;;;;;;;;;;4994687;28;20405;-50
2022/01/06 04:06:43;;;;;;;18.67;3.40;;;;;;;;;;4994781;28;20410;-50
2022/01/06 04:09:09;;;;;;;12.27;4.00;;;;;;;;;;4994581;28;20404;-49
2022/01/06 04:11:35;;;;;;;16.92;3.20;;;;;;;;;;4994460;28;20428;-49
2022/01/06 04:14:01;;;;;;;20.10;6.00;;;;;;;;;;4994481;28;20724;-49
2022/01/06 04:16:29;;;;;;;18.73;3.63;;;;;;;;;;4994542;28;20396;-49
2022/01/06 04:18:55;;;;;;;11.93;3.30;;;;;;;;;;4994404;28;20702;-50
2022/01/06 04:21:21;;;;;;;16.53;3.30;;;;;;;;;;4994166;28;20278;-50
2022/01/06 04:23:47;;;;;;;20.52;3.72;;;;;;;;;;4994105;28;20424;-50
2022/01/06 04:26:13;;;;;;;12.27;3.58;;;;;;;;;;4993688;28;20195;-50
2022/01/06 04:28:40;;;;;;;11.10;3.42;;;;;;;;;;4994156;28;20850;-50
2022/01/06 04:31:06;;;;;;;6.97;3.15;;;;;;;;;;4994017;28;20180;-50
2022/01/06 04:33:33;;;;;;;28.60;5.22;;;;;;;;;;4994178;28;20173;-50
2022/01/06 04:35:59;;;;;;;13.80;3.42;;;;;;;;;;4994273;28;20220;-49
2022/01/06 04:38:26;;;;;;;7.95;3.22;;;;;;;;;;4994071;28;20197;-49
2022/01/06 04:40:52;;;;;;;10.88;3.40;;;;;;;;;;4993880;28;20448;-50
2022/01/06 04:43:18;;;;;;;13.50;3.80;;;;;;;;;;4993966;28;20535;-50
2022/01/06 04:45:44;;;;;;;12.93;3.30;;;;;;;;;;4993968;28;20396;-49
2022/01/06 04:48:10;;;;;;;16.07;4.50;;;;;;;;;;4993999;28;20245;-49
2022/01/06 04:50:36;;;;;;;14.73;4.13;;;;;;;;;;4993603;28;20807;-49
2022/01/06 04:53:02;;;;;;;11.40;3.43;;;;;;;;;;4993852;28;20180;-49
2022/01/06 04:55:28;;;;;;;12.90;3.90;;;;;;;;;;4993768;28;20444;-49
2022/01/06 04:57:54;;;;;;;24.40;3.13;;;;;;;;;;4993653;28;20460;-49
2022/01/06 05:00:20;;;;;;;12.20;3.97;;;;;;;;;;4993905;28;20817;-50
2022/01/06 05:02:46;;;;;;;20.53;4.20;;;;;;;;;;4993742;28;20219;-50
2022/01/06 05:05:13;;;;;;;8.55;3.63;;;;;;;;;;4993594;28;20399;-50
2022/01/06 05:07:40;;;;;;;12.95;3.55;;;;;;;;;;4993989;28;20169;-50
2022/01/06 05:10:06;;;;;;;15.63;3.35;;;;;;;;;;4993389;28;20215;-50
2022/01/06 05:12:33;;;;;;;13.25;3.30;;;;;;;;;;4993124;28;20196;-50
2022/01/06 05:14:59;;;;;;;18.50;3.25;;;;;;;;;;4993373;28;20161;-49
2022/01/06 05:17:25;;;;;;;19.17;4.37;;;;;;;;;;4993388;28;20203;-49
2022/01/06 05:19:51;;;;;;;9.27;3.72;;;;;;;;;;4993219;28;20484;-49
2022/01/06 05:22:17;;;;;;;6.90;3.60;;;;;;;;;;4993057;28;20189;-50
2022/01/06 05:24:43;;;;;;;23.23;3.38;;;;;;;;;;4993011;28;20427;-50
2022/01/06 05:27:10;;;;;;;11.23;3.33;;;;;;;;;;4993209;28;20169;-50
2022/01/06 05:29:36;;;;;;;17.90;4.40;;;;;;;;;;4993103;28;20423;-50
2022/01/06 05:32:02;;;;;;;7.85;3.42;;;;;;;;;;4992880;28;20200;-50
2022/01/06 05:34:28;;;;;;;10.32;3.00;;;;;;;;;;4993147;28;20173;-49
2022/01/06 05:36:54;;;;;;;14.10;4.70;;;;;;;;;;4992933;28;20185;-50
2022/01/06 05:39:20;;;;;;;11.30;4.00;;;;;;;;;;4996440;28;20488;-51
2022/01/06 05:41:46;;;;;;;21.53;3.90;;;;;;;;;;4996904;28;20185;-50
2022/01/06 05:44:13;;;;;;;18.20;3.00;;;;;;;;;;4996919;28;20406;-50
2022/01/06 05:46:39;;;;;;;20.40;3.58;;;;;;;;;;4997180;28;20479;-51
2022/01/06 05:49:05;;;;;;;44.28;5.55;;;;;;;;;;4996669;28;20184;-50
2022/01/06 05:51:31;;;;;;;14.23;3.80;;;;;;;;;;4996062;28;20204;-50
2022/01/06 05:53:57;;;;;;;20.20;3.73;;;;;;;;;;4996583;28;20546;-50
2022/01/06 05:56:23;;;;;;;25.33;5.00;;;;;;;;;;4996147;28;20425;-50
2022/01/06 05:58:49;;;;;;;10.60;3.42;;;;;;;;;;4996073;28;20208;-50
2022/01/06 06:01:15;;;;;;;12.10;4.13;;;;;;;;;;4996050;28;20190;-52
2022/01/06 06:03:41;;;;;;;19.17;3.50;;;;;;;;;;4995730;28;20404;-50
2022/01/06 06:06:07;;;;;;;13.63;3.70;;;;;;;;;;4996169;28;20483;-52
2022/01/06 06:08:33;;;;;;;10.70;4.20;;;;;;;;;;4996204;28;20400;-50
2022/01/06 06:10:59;;;;;;;9.53;4.40;;;;;;;;;;4995808;28;20507;-50
2022/01/06 06:13:25;;;;;;;17.53;4.27;;;;;;;;;;4996325;28;20408;-50
2022/01/06 06:15:51;;;;;;;9.07;4.50;;;;;;;;;;4997417;28;20396;-50
2022/01/06 06:18:17;;;;;;;14.63;3.83;;;;;;;;;;4996758;28;20838;-50
2022/01/06 06:20:43;;;;;;;16.83;5.38;;;;;;;;;;4997071;28;20407;-50
2022/01/06 06:23:09;;;;;;;16.90;3.90;;;;;;;;;;4996460;28;20171;-50
2022/01/06 06:25:35;;;;;;;13.25;4.90;;;;;;;;;;4996192;28;20261;-50
2022/01/06 06:28:01;;;;;;;15.05;4.35;;;;;;;;;;4996148;28;20200;-51
2022/01/06 06:30:27;;;;;;;10.02;4.18;;;;;;;;;;4995851;28;20165;-50
2022/01/06 06:32:53;;;;;;;18.70;3.50;;;;;;;;;;4995338;28;20763;-49
2022/01/06 06:35:19;;;;;;;8.90;3.90;;;;;;;;;;4996065;28;20400;-51
2022/01/06 06:37:45;;;;;;;12.88;4.00;;;;;;;;;;4995537;28;20474;-50
2022/01/06 06:40:12;;;;;;;14.93;4.77;;;;;;;;;;4995912;28;20782;-51
2022/01/06 06:42:38;;;;;;;20.23;4.63;;;;;;;;;;4995666;28;20424;-50
2022/01/06 06:45:04;;;;;;;9.43;5.22;;;;;;;;;;4996856;28;20346;-52
2022/01/06 06:47:32;;;;;;;6.68;4.43;;;;;;;;;;4995784;28;20197;-50
2022/01/06 06:49:59;;;;;;;13.23;4.40;;;;;;;;;;5000050;28;20165;-50
2022/01/06 06:52:26;;;;;;;16.92;5.30;;;;;;;;;;4998988;28;20185;-51
2022/01/06 06:54:54;;;;;;;21.10;4.55;;;;;;;;;;4999788;28;20164;-51
2022/01/06 06:57:20;;;;;;;20.23;5.72;;;;;;;;;;4999386;28;20422;-51
2022/01/06 06:59:45;;;;;;;15.07;4.82;;;;;;;;;;4999669;28;20169;-50
2022/01/06 07:02:11;;;;;;;17.63;5.67;;;;;;;;;;4999208;28;20242;-50
2022/01/06 07:04:37;;;;;;;15.17;6.13;;;;;;;;;;4998861;28;20904;-51
2022/01/06 07:07:03;;;;;;;9.10;5.30;;;;;;;;;;5000168;28;20775;-50
2022/01/06 07:09:29;;;;;;;18.45;6.18;;;;;;;;;;5000285;28;20498;-51
2022/01/06 07:11:55;;;;;;;11.88;7.50;;;;;;;;;;4999675;28;20240;-51
2022/01/06 07:14:21;;;;;;;17.40;5.32;;;;;;;;;;5000129;28;20684;-50
2022/01/06 07:16:47;;;;;;;17.97;6.20;;;;;;;;;;4998981;28;20256;-52
2022/01/06 07:19:13;;;;;;;31.35;7.13;;;;;;;;;;4999310;28;20455;-51
2022/01/06 07:21:39;;;;;;;22.63;5.90;;;;;;;;;;4999111;28;20189;-50
2022/01/06 07:24:05;;;;;;;13.73;5.83;;;;;;;;;;4999763;28;20854;-51
2022/01/06 07:26:32;;;;;;;13.52;6.47;;;;;;;;;;4999681;28;20397;-50
2022/01/06 07:28:59;;;;;;;9.27;5.25;;;;;;;;;;4999715;28;20219;-50
2022/01/06 07:31:25;;;;;;;15.73;6.28;;;;;;;;;;4999056;28;20201;-50
2022/01/06 07:33:51;;;;;;;30.55;5.72;;;;;;;;;;4999529;28;20696;-51
2022/01/06 07:36:17;;;;;;;23.23;6.15;;;;;;;;;;4999154;28;20208;-49
2022/01/06 07:38:43;;;;;;;14.13;4.80;;;;;;;;;;4999557;28;20357;-52
2022/01/06 07:41:09;;;;;;;15.07;6.17;;;;;;;;;;4998683;28;20424;-50
2022/01/06 07:43:35;;;;;;;18.25;6.07;;;;;;;;;;4999147;28;20400;-50
2022/01/06 07:46:04;;;;;;;14.83;5.20;;;;;;;;;;4999526;28;20169;-50
2022/01/06 07:48:47;;;;;;;15.57;6.95;;;;;;;;;;4999446;28;20407;-50
2022/01/06 07:51:13;;;;;;;15.98;5.55;;;;;;;;;;4999108;28;20256;-50
2022/01/06 07:53:39;;;;;;;15.35;5.90;;;;;;;;;;4998106;28;20705;-50
2022/01/06 07:56:05;;;;;;;20.40;6.60;;;;;;;;;;4997936;28;20169;-50
2022/01/06 07:58:31;;;;;;;24.03;5.83;;;;;;;;;;4997291;28;20447;-50
2022/01/06 08:00:59;;;;;;;25.87;7.33;;;;;;;;;;4996670;28;20452;-50
2022/01/06 08:03:25;;;;;;;21.73;6.65;;;;;;;;;;4997905;28;20407;-50
2022/01/06 08:05:51;;;;;;;13.90;5.73;;;;;;;;;;4997199;28;20178;-49
2022/01/06 08:08:17;;;;;;;15.83;5.97;;;;;;;;;;4996867;28;20414;-52
2022/01/06 08:10:43;;;;;;;14.80;6.93;;;;;;;;;;4998642;28;20466;-51
2022/01/06 08:13:09;;;;;;;24.37;7.70;;;;;;;;;;4997974;28;20630;-51
2022/01/06 08:15:35;;;;;;;19.27;7.40;;;;;;;;;;4998182;28;20419;-53
2022/01/06 08:18:01;;;;;;;12.97;5.50;;;;;;;;;;4999116;28;20957;-52
2022/01/06 08:20:28;;;;;;;15.43;6.60;;;;;;;;;;4998496;28;20404;-51
2022/01/06 08:22:55;;;;;;;14.85;5.40;;;;;;;;;;4998719;28;20432;-49
2022/01/06 08:25:21;;;;;;;14.45;6.90;;;;;;;;;;4999038;28;20188;-50
2022/01/06 08:27:47;;;;;;;13.18;5.80;;;;;;;;;;4998720;28;20754;-51
2022/01/06 08:30:13;;;;;;;16.10;6.60;;;;;;;;;;4999872;28;20200;-51
2022/01/06 08:32:39;;;;;;;30.67;7.93;;;;;;;;;;4999945;28;20718;-52
2022/01/06 08:35:05;;;;;;;13.30;5.63;;;;;;;;;;5000744;28;20299;-51
2022/01/06 08:37:31;;;;;;;16.55;6.10;;;;;;;;;;4999992;28;20826;-52
2022/01/06 08:39:57;;;;;;;15.15;5.40;;;;;;;;;;5000722;28;20177;-52
2022/01/06 08:42:23;;;;;;;21.63;7.00;;;;;;;;;;4999558;28;20185;-52
2022/01/06 08:44:50;;;;;;;18.13;7.70;;;;;;;;;;5000631;28;20446;-51
2022/01/06 08:47:16;;;;;;;13.82;5.82;;;;;;;;;;5000465;28;20173;-52
2022/01/06 08:49:42;;;;;;;12.53;4.97;;;;;;;;;;4999961;28;20281;-51
2022/01/06 08:52:09;;;;;;;19.83;6.47;;;;;;;;;;4999300;28;20939;-51
2022/01/06 08:54:35;;;;;;;17.40;6.53;;;;;;;;;;4998988;28;20173;-53
2022/01/06 08:57:01;;;;;;;23.63;5.80;;;;;;;;;;4998851;28;20180;-52
2022/01/06 08:59:27;;;;;;;20.38;6.38;;;;;;;;;;4998037;28;20193;-51
2022/01/06 09:01:53;;;;;;;14.30;5.90;;;;;;;;;;4997187;28;20261;-51
2022/01/06 09:04:20;;;;;;;9.70;5.75;;;;;;;;;;4997284;28;20703;-51
2022/01/06 09:06:52;;;;;;;12.23;5.53;;;;;;;;;;4996891;28;20660;-53
2022/01/06 09:09:19;;;;;;;8.82;4.50;;;;;;;;;;4995860;28;20191;-53
2022/01/06 09:11:45;;;;;;;21.25;5.80;;;;;;;;;;4995533;28;20695;-53
2022/01/06 09:14:11;;;;;;;14.33;5.03;;;;;;;;;;4995537;28;20185;-54
2022/01/06 09:16:38;;;;;;;11.00;4.07;;;;;;;;;;4996077;28;21032;-54
2022/01/06 09:19:04;;;;;;;11.45;4.00;;;;;;;;;;4997015;28;20199;-53
2022/01/06 09:21:30;;;;;;;6.80;4.13;;;;;;;;;;4996762;28;20245;-52
2022/01/06 09:23:59;;;;;;;8.63;3.50;;;;;;;;;;4997921;28;20491;-52
2022/01/06 09:26:27;;;;;;;9.33;3.97;;;;;;;;;;4997728;28;20413;-54
2022/01/06 09:28:53;;;;;;;16.73;4.70;;;;;;;;;;4997843;28;20414;-52
2022/01/06 09:31:19;;;;;;;9.50;3.60;;;;;;;;;;4996892;28;20494;-54
2022/01/06 09:33:45;;;;;;;14.33;4.60;;;;;;;;;;4997563;28;20404;-54
2022/01/06 09:36:11;;;;;;;7.30;3.67;;;;;;;;;;4996889;28;20412;-54
2022/01/06 09:38:37;;;;;;;9.93;3.60;;;;;;;;;;4996115;28;20509;-54
2022/01/06 09:41:05;;;;;;;12.73;3.80;;;;;;;;;;4995172;28;20435;-54
2022/01/06 09:43:32;;;;;;;8.80;3.60;;;;;;;;;;4995201;28;20965;-54
2022/01/06 09:46:01;;;;;;;16.43;4.37;;;;;;;;;;4995118;28;20432;-54
2022/01/06 09:48:29;;;;;;;14.57;4.97;;;;;;;;;;4994586;28;20496;-54
2022/01/06 09:50:56;;;;;;;11.30;3.83;;;;;;;;;;4993810;28;20808;-54
2022/01/06 09:53:24;;;;;;;7.53;4.33;;;;;;;;;;4994518;28;20441;-53
2022/01/06 09:55:50;;;;;;;14.60;4.63;;;;;;;;;;4994387;28;21071;-54
2022/01/06 09:58:23;;;;;;;11.93;3.97;;;;;;;;;;4993994;28;20461;-55
2022/01/06 10:00:49;;;;;;;19.03;4.27;;;;;;;;;;4993670;28;20450;-53
2022/01/06 10:03:15;;;;;;;11.80;4.67;;;;;;;;;;4994015;28;20409;-53
2022/01/06 10:05:49;;;;;;;12.20;3.63;;;;;;;;;;4994284;28;20404;-55
2022/01/06 10:08:26;;;;;;;13.37;5.50;;;;;;;;;;4993959;28;20407;-55
2022/01/06 10:10:52;;;;;;;10.67;4.20;;;;;;;;;;4993257;28;20407;-54
2022/01/06 10:13:19;;;;;;;22.33;5.20;;;;;;;;;;4993258;28;20455;-53
2022/01/06 10:15:46;;;;;;;12.97;4.80;;;;;;;;;;4993489;28;20897;-54
2022/01/06 10:18:16;;;;;;;15.33;5.90;;;;;;;;;;4993645;28;20454;-54
2022/01/06 10:20:43;;;;;;;8.07;4.30;;;;;;;;;;4993752;28;20910;-53
2022/01/06 10:23:11;;;;;;;14.20;5.47;;;;;;;;;;4993205;28;20421;-54
2022/01/06 10:25:38;;;;;;;12.60;4.20;;;;;;;;;;4993435;28;20456;-55
2022/01/06 10:28:18;;;;;;;11.97;4.63;;;;;;;;;;4992861;28;20439;-54
2022/01/06 10:30:48;;;;;;;13.27;4.40;;;;;;;;;;4993257;28;20444;-55
2022/01/06 10:33:20;;;;;;;10.03;3.77;;;;;;;;;;4994061;28;20452;-54
2022/01/06 10:35:47;;;;;;;13.10;4.80;;;;;;;;;;4993829;28;20403;-54
2022/01/06 10:38:13;;;;;;;11.43;4.63;;;;;;;;;;4994500;28;20477;-54
2022/01/06 10:40:41;;;;;;;10.13;4.07;;;;;;;;;;4995423;28;20902;-52
2022/01/06 10:43:08;;;;;;;8.50;4.37;;;;;;;;;;4995566;28;20467;-55
2022/01/06 10:45:36;;;;;;;15.10;4.60;;;;;;;;;;4995542;28;20957;-54
2022/01/06 10:48:04;;;;;;;15.60;3.93;;;;;;;;;;4996951;28;20416;-53
2022/01/06 10:50:30;;;;;;;12.83;4.90;;;;;;;;;;4994907;28;20488;-54
2022/01/06 10:53:01;;;;;;;15.63;5.20;;;;;;;;;;5002119;28;20939;-54
2022/01/06 10:55:34;;;;;;;11.93;3.90;;;;;;;;;;4988948;28;20942;-53
2022/01/06 10:58:03;;;;;;;8.30;3.90;;;;;;;;;;4994726;28;20508;-55
2022/01/06 11:00:30;;;;;;;10.50;3.83;;;;;;;;;;4994576;28;20412;-54
2022/01/06 11:03:08;;;;;;;17.17;5.27;;;;;;;;;;4994862;28;20424;-55
2022/01/06 11:05:35;;;;;;;8.57;4.23;;;;;;;;;;4995694;28;20400;-54
2022/01/06 11:08:02;;;;;;;13.30;4.37;;;;;;;;;;4993823;28;20908;-54
2022/01/06 11:10:28;;;;;;;8.60;4.20;;;;;;;;;;4994651;28;20404;-54
2022/01/06 11:12:54;;;;;;;17.50;4.87;;;;;;;;;;4993367;28;20437;-54
2022/01/06 11:15:20;;;;;;;11.30;3.97;;;;;;;;;;4993501;28;20895;-54
2022/01/06 11:17:47;;;;;;;15.80;4.37;;;;;;;;;;4993562;28;20451;-53
2022/01/06 11:20:35;;;;;;;8.60;4.43;;;;;;;;;;4993344;28;20404;-55
2022/01/06 11:23:01;;;;;;;14.13;4.53;;;;;;;;;;4992557;28;20838;-54
2022/01/06 11:25:31;;;;;;;22.53;5.00;;;;;;;;;;4992438;28;20527;-54
2022/01/06 11:28:01;;;;;;;12.13;4.63;;;;;;;;;;4993005;28;20812;-54
2022/01/06 11:30:38;;;;;;;8.50;4.20;;;;;;;;;;4992700;28;20412;-54
2022/01/06 11:33:04;;;;;;;13.37;4.40;;;;;;;;;;4992791;28;20434;-55
2022/01/06 11:35:30;;;;;;;12.60;5.10;;;;;;;;;;4995499;28;20830;-57
2022/01/06 11:37:57;;;;;;;15.90;5.50;;;;;;;;;;4995969;28;20458;-54
2022/01/06 11:40:30;;;;;;;15.50;5.60;;;;;;;;;;4995692;28;20412;-54
2022/01/06 11:42:56;;;;;;;8.93;5.40;;;;;;;;;;4995370;28;20427;-54
2022/01/06 11:45:23;;;;;;;14.53;6.33;;;;;;;;;;4996624;28;20789;-52
2022/01/06 11:47:58;;;;;;;15.53;7.10;;;;;;;;;;4996288;28;20426;-52
2022/01/06 11:50:25;;;;;;;15.43;8.40;;;;;;;;;;4995488;28;20411;-52
2022/01/06 11:52:58;;;;;;;20.23;8.60;;;;;;;;;;4995392;28;20977;-52
2022/01/06 11:55:36;;;;;;;15.90;8.57;;;;;;;;;;4995420;28;20747;-53
2022/01/06 11:58:18;;;;;;;16.03;8.97;;;;;;;;;;4995295;28;20955;-53
2022/01/06 12:00:55;;;;;;;17.10;9.10;;;;;;;;;;4995067;28;20404;-52
2022/01/06 12:03:21;;;;;;;13.83;9.20;;;;;;;;;;4995319;28;21145;-52
2022/01/06 12:05:49;;;;;;;18.37;9.17;;;;;;;;;;4995633;28;20401;-53
2022/01/06 12:08:16;;;;;;;16.03;8.83;;;;;;;;;;4995807;28;20951;-52
2022/01/06 12:10:46;;;;;;;16.67;10.23;;;;;;;;;;4995250;28;20419;-52
2022/01/06 12:13:12;;;;;;;24.23;10.53;;;;;;;;;;4995412;28;20507;-52
2022/01/06 12:15:55;;;;;;;17.90;9.77;;;;;;;;;;4995360;28;20414;-53
2022/01/06 12:18:23;;;;;;;25.20;10.83;;;;;;;;;;4994812;28;20487;-53
2022/01/06 12:20:49;;;;;;;23.67;11.47;;;;;;;;;;4994525;28;20401;-53
2022/01/06 12:23:19;;;;;;;19.00;10.80;;;;;;;;;;4994709;28;20396;-54
2022/01/06 12:25:55;;;;;;;24.27;11.30;;;;;;;;;;4994569;28;20420;-52
2022/01/06 12:28:21;;;;;;;20.40;12.57;;;;;;;;;;4994663;28;20774;-52
2022/01/06 12:30:47;;;;;;;28.90;12.97;;;;;;;;;;4994249;28;20412;-53
2022/01/06 12:33:19;;;;;;;26.60;13.60;;;;;;;;;;4994466;28;20432;-52
2022/01/06 12:35:55;;;;;;;29.40;12.70;;;;;;;;;;4994684;28;20414;-52
2022/01/06 12:38:29;;;;;;;27.03;12.77;;;;;;;;;;4994517;28;20471;-52
2022/01/06 12:40:55;;;;;;;20.87;12.57;;;;;;;;;;4994003;28;20403;-52
2022/01/06 12:43:22;;;;;;;22.00;12.30;;;;;;;;;;4994551;28;20494;-52
2022/01/06 12:46:00;;;;;;;22.43;12.30;;;;;;;;;;4993506;28;20404;-52
2022/01/06 12:48:28;;;;;;;25.07;13.00;;;;;;;;;;4994043;28;20884;-52
2022/01/06 12:50:54;;;;;;;23.87;12.47;;;;;;;;;;4993673;28;20412;-51
2022/01/06 12:53:24;;;;;;;20.80;12.80;;;;;;;;;;4993945;28;20425;-52
2022/01/06 12:55:50;;;;;;;27.47;13.53;;;;;;;;;;4992654;28;20408;-52
2022/01/06 12:58:25;;;;;;;25.10;13.40;;;;;;;;;;4991407;28;20459;-52
2022/01/06 13:00:53;;;;;;;28.67;14.60;;;;;;;;;;4993580;28;20449;-52
2022/01/06 13:03:25;;;;;;;29.23;14.90;;;;;;;;;;5001628;28;20413;-51
2022/01/06 13:05:51;;;;;;;23.53;13.10;;;;;;;;;;5011984;28;20407;-51
2022/01/06 13:08:17;;;;;;;30.70;14.37;;;;;;;;;;5012544;28;20429;-52
2022/01/06 13:10:43;;;;;;;31.40;14.50;;;;;;;;;;5013132;28;20421;-52
2022/01/06 13:13:09;;;;;;;26.47;14.13;;;;;;;;;;5012952;28;20890;-51
2022/01/06 13:15:35;;;;;;;27.50;14.00;;;;;;;;;;5013924;28;20554;-52
2022/01/06 13:18:02;;;;;;;26.47;15.80;;;;;;;;;;5014486;28;20537;-52
2022/01/06 13:20:36;;;;;;;29.73;14.67;;;;;;;;;;5014058;28;20883;-53
2022/01/06 13:23:41;;;;;;;36.93;15.17;;;;;;;;;;5014265;28;20915;-51
2022/01/06 13:26:08;;;;;;;28.73;13.63;;;;;;;;;;5014054;28;20419;-51
2022/01/06 13:28:34;;;;;;;22.83;12.90;;;;;;;;;;5014190;28;20438;-52
2022/01/06 13:31:00;;;;;;;31.30;14.10;;;;;;;;;;5013469;28;20446;-52
2022/01/06 13:33:31;;;;;;;31.90;15.50;;;;;;;;;;5011405;28;20410;-50
2022/01/06 13:36:05;;;;;;;30.03;13.77;;;;;;;;;;4987416;28;20415;-49
2022/01/06 13:38:31;;;;;;;27.93;14.30;;;;;;;;;;4987058;28;20480;-52
2022/01/06 13:41:01;;;;;;;29.20;13.20;;;;;;;;;;4986821;28;20975;-52
2022/01/06 13:43:28;;;;;;;29.40;12.87;;;;;;;;;;4980952;28;20810;-51
2022/01/06 13:45:56;;;;;;;28.30;14.73;;;;;;;;;;4979230;28;20423;-51
2022/01/06 13:51:05;;;;;;;33.57;15.17;;;;;;;;;;4972480;28;20451;-53
2022/01/06 13:53:42;;;;;;;31.83;15.50;;;;;;;;;;4973267;28;20405;-52
2022/01/06 13:56:27;;;;;;;35.07;14.47;;;;;;;;;;4973729;28;20440;-52
2022/01/06 13:58:53;;;;;;;30.70;15.00;;;;;;;;;;4973410;28;20466;-51
2022/01/06 14:01:22;;;;;;;29.90;15.17;;;;;;;;;;4973282;28;20431;-52
2022/01/06 14:03:49;;;;;;;32.23;14.10;;;;;;;;;;4973092;28;20412;-52
2022/01/06 14:06:16;;;;;;;28.90;14.17;;;;;;;;;;4974427;28;20399;-52
2022/01/06 14:08:42;;;;;;;20.23;12.10;;;;;;;;;;4973674;28;20452;-52
2022/01/06 14:11:09;;;;;;;28.40;13.80;;;;;;;;;;4974349;28;20474;-51
2022/01/06 14:13:36;;;;;;;31.23;14.07;;;;;;;;;;4974139;28;20537;-52
2022/01/06 14:16:03;;;;;;;27.00;14.30;;;;;;;;;;4974373;28;20471;-51
2022/01/06 14:18:29;;;;;;;36.83;13.77;;;;;;;;;;4974418;28;20452;-52
2022/01/06 14:20:55;;;;;;;25.17;12.33;;;;;;;;;;4974128;28;20411;-52
2022/01/06 14:23:21;;;;;;;29.63;14.07;;;;;;;;;;4974148;28;20415;-52
2022/01/06 14:25:47;;;;;;;26.83;13.43;;;;;;;;;;4973694;28;20442;-51
2022/01/06 14:28:13;;;;;;;42.67;12.57;;;;;;;;;;4974095;28;20408;-52
2022/01/06 14:30:39;;;;;;;30.27;13.60;;;;;;;;;;4973140;28;20412;-52
2022/01/06 14:33:06;;;;;;;21.80;11.53;;;;;;;;;;4973643;28;20462;-51
2022/01/06 14:35:32;;;;;;;24.70;11.47;;;;;;;;;;4973782;28;20416;-52
2022/01/06 14:37:58;;;;;;;18.27;11.33;;;;;;;;;;4973894;28;20489;-51